Time;durP1;ratioP1;P1;durP2;ratioP2;P2;SDS_P1;SDS_P2;PMS_P1;PMS_P2;Temp;Humidity;BMP_temperature;BMP_pressure;BME280_temperature;BME280_humidity;BME280_pressure;Samples;Min_cycle;Max_cycle;Signal;HPM_P1;HPM_P2
2023/03/08 00:00:42;;;;;;;13.75;7.13;;;1.40;99.90;;;;;;4906838;28;20159;-78
2023/03/08 00:03:12;;;;;;;12.35;6.40;;;1.30;99.90;;;;;;4909816;29;20552;-78
2023/03/08 00:05:38;;;;;;;23.27;11.60;;;1.30;99.90;;;;;;4892231;28;20622;-77
2023/03/08 00:08:03;;;;;;;15.75;8.65;;;1.40;99.90;;;;;;4922339;28;20114;-77
2023/03/08 00:10:29;;;;;;;8.10;4.13;;;1.40;99.90;;;;;;4918767;28;20039;-78
2023/03/08 00:12:54;;;;;;;17.42;10.75;;;1.40;99.90;;;;;;4915293;28;20027;-78
2023/03/08 00:15:20;;;;;;;9.55;4.95;;;1.40;99.90;;;;;;4929462;28;20836;-78
2023/03/08 00:17:46;;;;;;;7.05;3.45;;;1.40;99.90;;;;;;4913818;28;20035;-77
2023/03/08 00:20:11;;;;;;;7.20;3.83;;;1.40;99.90;;;;;;4896327;28;20191;-78
2023/03/08 00:22:37;;;;;;;16.33;9.45;;;1.40;99.90;;;;;;4891574;28;20031;-77
2023/03/08 00:25:03;;;;;;;15.68;7.13;;;1.40;99.90;;;;;;4912213;28;20037;-77
2023/03/08 00:27:29;;;;;;;14.80;7.97;;;1.40;99.90;;;;;;4916334;28;20031;-78
2023/03/08 00:29:55;;;;;;;20.02;10.90;;;1.40;99.90;;;;;;4898904;29;20035;-77
2023/03/08 00:32:20;;;;;;;17.23;8.68;;;1.40;99.90;;;;;;4925786;28;20073;-77
2023/03/08 00:34:46;;;;;;;14.35;8.02;;;1.40;99.90;;;;;;4905873;29;20571;-77
2023/03/08 00:37:12;;;;;;;16.92;10.27;;;1.40;99.90;;;;;;4902383;29;20031;-77
2023/03/08 00:39:38;;;;;;;22.45;11.73;;;1.40;99.90;;;;;;4924209;28;20216;-77
2023/03/08 00:42:04;;;;;;;12.63;5.45;;;1.30;99.90;;;;;;4905100;28;20077;-77
2023/03/08 00:44:29;;;;;;;19.27;9.73;;;1.40;99.90;;;;;;4935081;28;20105;-78
2023/03/08 00:46:55;;;;;;;17.52;9.05;;;1.30;99.90;;;;;;4911481;28;20101;-77
2023/03/08 00:49:21;;;;;;;15.35;9.10;;;1.40;99.90;;;;;;4946457;28;20042;-77
2023/03/08 00:51:48;;;;;;;16.67;8.95;;;1.40;99.90;;;;;;4897093;28;20483;-77
2023/03/08 00:54:13;;;;;;;15.38;8.57;;;1.40;99.90;;;;;;4936925;28;20089;-76
2023/03/08 00:56:39;;;;;;;16.38;8.05;;;1.30;99.90;;;;;;4894264;29;20063;-76
2023/03/08 00:59:05;;;;;;;13.52;7.47;;;1.30;99.90;;;;;;4901189;28;20142;-76
2023/03/08 01:01:31;;;;;;;15.40;7.60;;;1.50;99.90;;;;;;4918239;28;20035;-77
2023/03/08 01:03:56;;;;;;;11.48;7.60;;;1.50;99.90;;;;;;4923513;28;20058;-76
2023/03/08 01:06:22;;;;;;;20.23;10.30;;;1.40;99.90;;;;;;4900051;28;20082;-76
2023/03/08 01:08:48;;;;;;;15.30;8.20;;;1.50;99.90;;;;;;4925359;28;20054;-77
2023/03/08 01:11:19;;;;;;;17.52;10.10;;;1.40;99.90;;;;;;4916839;28;20122;-77
2023/03/08 01:13:44;;;;;;;13.13;7.78;;;1.60;99.90;;;;;;4898038;28;20035;-77
2023/03/08 01:16:24;;;;;;;15.65;8.27;;;1.50;99.90;;;;;;4929700;28;20035;-78
2023/03/08 01:18:50;;;;;;;16.00;9.00;;;1.60;99.90;;;;;;4916840;29;20089;-78
2023/03/08 01:21:15;;;;;;;15.63;9.02;;;1.50;99.90;;;;;;4898247;28;20447;-78
2023/03/08 01:23:41;;;;;;;18.38;9.68;;;1.50;99.90;;;;;;4914157;28;20036;-78
2023/03/08 01:26:10;;;;;;;16.95;9.30;;;1.50;99.90;;;;;;4904205;28;20039;-77
2023/03/08 01:28:35;;;;;;;14.18;6.97;;;1.50;99.90;;;;;;4938684;28;20047;-77
2023/03/08 01:31:05;;;;;;;17.48;10.80;;;1.50;99.90;;;;;;4930116;28;20179;-78
2023/03/08 01:33:31;;;;;;;16.33;9.77;;;1.60;99.90;;;;;;4914542;28;20540;-78
2023/03/08 01:35:56;;;;;;;14.13;7.43;;;1.40;99.90;;;;;;4895984;28;20039;-78
2023/03/08 01:38:22;;;;;;;18.10;8.88;;;1.40;99.90;;;;;;4934383;28;20046;-78
2023/03/08 01:40:48;;;;;;;11.80;6.75;;;1.40;99.90;;;;;;4896391;28;20058;-77
2023/03/08 01:43:31;;;;;;;16.25;8.43;;;1.50;99.90;;;;;;4929752;28;20085;-77
2023/03/08 01:46:06;;;;;;;16.08;9.23;;;1.60;99.90;;;;;;4941637;28;20115;-78
2023/03/08 01:48:46;;;;;;;14.20;8.52;;;1.60;99.90;;;;;;4942368;28;20035;-77
2023/03/08 01:51:12;;;;;;;25.92;10.75;;;1.60;99.90;;;;;;4913205;28;20138;-78
2023/03/08 01:53:37;;;;;;;16.10;9.65;;;1.60;99.90;;;;;;4914558;28;20105;-78
2023/03/08 01:56:05;;;;;;;13.93;8.32;;;1.50;99.90;;;;;;4908499;28;20452;-77
2023/03/08 01:58:31;;;;;;;18.35;10.45;;;1.60;99.90;;;;;;4919141;28;20035;-77
2023/03/08 02:00:56;;;;;;;15.00;7.63;;;1.60;99.90;;;;;;4919159;28;20074;-77
2023/03/08 02:03:22;;;;;;;19.83;11.35;;;1.50;99.90;;;;;;4929400;28;20035;-77
2023/03/08 02:05:47;;;;;;;20.42;11.32;;;1.40;99.90;;;;;;4934738;28;20023;-77
2023/03/08 02:08:13;;;;;;;15.45;8.52;;;1.60;99.90;;;;;;4940768;28;20038;-77
2023/03/08 02:10:39;;;;;;;13.65;8.02;;;1.70;99.90;;;;;;4898062;28;20135;-77
2023/03/08 02:13:05;;;;;;;19.67;11.32;;;1.70;99.90;;;;;;4927846;28;20036;-76
2023/03/08 02:15:31;;;;;;;15.82;9.23;;;1.70;99.90;;;;;;4946966;28;20107;-77
2023/03/08 02:17:56;;;;;;;14.73;9.38;;;1.60;99.90;;;;;;4913094;29;20027;-77
2023/03/08 02:20:26;;;;;;;16.33;9.95;;;1.60;99.90;;;;;;4918733;28;20074;-77
2023/03/08 02:22:53;;;;;;;16.27;8.95;;;1.60;99.90;;;;;;4910353;28;20171;-76
2023/03/08 02:25:20;;;;;;;21.40;12.52;;;1.60;99.90;;;;;;4896438;28;20111;-77
2023/03/08 02:27:46;;;;;;;17.42;9.85;;;1.50;99.90;;;;;;4934200;28;20538;-77
2023/03/08 02:30:14;;;;;;;19.80;10.57;;;1.50;99.90;;;;;;4898300;28;20110;-77
2023/03/08 02:32:39;;;;;;;15.13;9.35;;;1.40;99.90;;;;;;4916855;28;20636;-78
2023/03/08 02:35:05;;;;;;;22.50;11.98;;;1.50;99.90;;;;;;4916607;28;20038;-78
2023/03/08 02:37:31;;;;;;;16.38;10.38;;;1.50;99.90;;;;;;4917431;28;20102;-77
2023/03/08 02:39:57;;;;;;;19.98;12.52;;;1.50;99.90;;;;;;4925956;28;20067;-78
2023/03/08 02:42:23;;;;;;;15.45;9.15;;;1.50;99.90;;;;;;4952360;28;20125;-78
2023/03/08 02:44:48;;;;;;;16.02;9.35;;;1.50;99.90;;;;;;4899142;28;20027;-78
2023/03/08 02:47:14;;;;;;;20.52;10.45;;;1.50;99.90;;;;;;4909398;28;20070;-78
2023/03/08 02:49:39;;;;;;;22.20;13.25;;;1.40;99.90;;;;;;4912792;28;20023;-77
2023/03/08 02:52:05;;;;;;;15.48;9.63;;;1.50;99.90;;;;;;4925552;28;20094;-78
2023/03/08 02:54:30;;;;;;;19.00;11.18;;;1.50;99.90;;;;;;4930360;28;20034;-78
2023/03/08 02:56:56;;;;;;;20.23;10.13;;;1.40;99.90;;;;;;4945943;28;20032;-78
2023/03/08 02:59:21;;;;;;;17.55;8.45;;;1.50;99.90;;;;;;4935935;28;20787;-78
2023/03/08 03:01:47;;;;;;;20.05;10.23;;;1.50;99.90;;;;;;4915270;28;20066;-77
2023/03/08 03:04:12;;;;;;;14.93;8.98;;;1.50;99.90;;;;;;4902754;28;20555;-78
2023/03/08 03:06:38;;;;;;;17.33;10.23;;;1.50;99.90;;;;;;4898927;28;20027;-78
2023/03/08 03:09:07;;;;;;;16.30;9.38;;;1.50;99.90;;;;;;4933452;28;20023;-78
2023/03/08 03:11:33;;;;;;;15.52;8.93;;;1.50;99.90;;;;;;4917846;28;20067;-77
2023/03/08 03:13:58;;;;;;;14.70;8.85;;;1.50;99.90;;;;;;4913735;28;20055;-78
2023/03/08 03:16:24;;;;;;;16.02;8.93;;;1.50;99.90;;;;;;4905343;28;20039;-78
2023/03/08 03:18:51;;;;;;;16.92;8.73;;;1.60;99.90;;;;;;4891332;28;20094;-77
2023/03/08 03:21:17;;;;;;;16.88;8.95;;;1.50;99.90;;;;;;4898807;28;20069;-77
2023/03/08 03:23:42;;;;;;;19.15;9.60;;;1.50;99.90;;;;;;4916727;28;20507;-76
2023/03/08 03:26:10;;;;;;;14.82;7.80;;;1.50;99.90;;;;;;4915199;28;20484;-76
2023/03/08 03:28:35;;;;;;;17.65;9.95;;;1.60;99.90;;;;;;4918793;28;20046;-77
2023/03/08 03:31:01;;;;;;;13.77;8.48;;;1.60;99.90;;;;;;4901162;28;20043;-76
2023/03/08 03:33:27;;;;;;;18.55;10.20;;;1.50;99.90;;;;;;4927089;28;20045;-77
2023/03/08 03:35:53;;;;;;;17.48;9.25;;;1.50;99.90;;;;;;4914271;28;20042;-77
2023/03/08 03:38:18;;;;;;;16.98;10.10;;;1.50;99.90;;;;;;4932891;28;20507;-77
2023/03/08 03:40:44;;;;;;;19.95;11.55;;;1.50;99.90;;;;;;4925621;28;20080;-76
2023/03/08 03:43:09;;;;;;;18.55;9.68;;;1.60;99.90;;;;;;4930183;28;20039;-77
2023/03/08 03:45:35;;;;;;;21.63;10.75;;;1.50;99.90;;;;;;4898442;28;20609;-76
2023/03/08 03:48:00;;;;;;;24.40;12.18;;;1.40;99.90;;;;;;4941653;28;20024;-76
2023/03/08 03:50:26;;;;;;;19.42;10.30;;;1.30;99.90;;;;;;4915695;28;20051;-79
2023/03/08 03:52:51;;;;;;;17.40;11.27;;;1.20;99.90;;;;;;4931160;28;20019;-78
2023/03/08 03:55:17;;;;;;;23.50;12.65;;;1.20;99.90;;;;;;4916082;28;20446;-79
2023/03/08 03:57:42;;;;;;;21.73;10.57;;;1.20;99.90;;;;;;4899931;28;20427;-79
2023/03/08 04:00:09;;;;;;;19.30;9.25;;;1.10;99.90;;;;;;4946701;28;20188;-79
2023/03/08 04:02:34;;;;;;;22.10;13.10;;;1.20;99.90;;;;;;4916320;28;20035;-79
2023/03/08 04:05:00;;;;;;;24.55;11.95;;;1.20;99.90;;;;;;4930019;28;20032;-78
2023/03/08 04:07:25;;;;;;;18.77;11.18;;;1.20;99.90;;;;;;4906272;28;20043;-78
2023/03/08 04:09:51;;;;;;;23.65;12.48;;;1.20;99.90;;;;;;4933079;28;20496;-78
2023/03/08 04:12:16;;;;;;;22.50;11.18;;;1.10;99.90;;;;;;4906620;28;20028;-78
2023/03/08 04:14:42;;;;;;;16.05;8.57;;;1.20;99.90;;;;;;4896612;28;20015;-78
2023/03/08 04:17:08;;;;;;;24.45;11.90;;;1.20;99.90;;;;;;4947807;28;20047;-78
2023/03/08 04:19:33;;;;;;;20.48;11.55;;;1.10;99.90;;;;;;4939309;28;20050;-78
2023/03/08 04:21:59;;;;;;;17.38;9.88;;;1.20;99.90;;;;;;4950231;28;20419;-79
2023/03/08 04:24:24;;;;;;;23.25;13.40;;;1.20;99.90;;;;;;4913901;28;20074;-78
2023/03/08 04:26:50;;;;;;;18.58;10.65;;;1.20;99.90;;;;;;4948333;28;20032;-78
2023/03/08 04:29:15;;;;;;;20.98;10.90;;;1.20;99.90;;;;;;4931172;28;20031;-78
2023/03/08 04:31:41;;;;;;;21.80;11.90;;;1.10;99.90;;;;;;4914514;28;20079;-78
2023/03/08 04:34:06;;;;;;;23.15;10.32;;;1.10;99.90;;;;;;4920994;28;20114;-77
2023/03/08 04:36:32;;;;;;;21.42;11.75;;;1.20;99.90;;;;;;4946614;28;20059;-78
2023/03/08 04:38:58;;;;;;;25.73;12.45;;;1.10;99.90;;;;;;4952599;28;20048;-77
2023/03/08 04:41:23;;;;;;;16.77;9.98;;;1.00;99.90;;;;;;4948723;28;20035;-78
2023/03/08 04:43:50;;;;;;;19.10;10.25;;;1.00;99.90;;;;;;4918743;28;20144;-77
2023/03/08 04:46:17;;;;;;;24.17;12.05;;;1.00;99.90;;;;;;4892470;28;20511;-78
2023/03/08 04:48:42;;;;;;;23.17;10.98;;;1.00;99.90;;;;;;4915739;28;20040;-78
2023/03/08 04:51:09;;;;;;;21.15;10.85;;;1.00;99.90;;;;;;4916849;28;20097;-78
2023/03/08 04:53:35;;;;;;;22.60;12.00;;;1.10;99.90;;;;;;4952333;28;20098;-79
2023/03/08 04:56:00;;;;;;;31.48;14.23;;;1.10;99.90;;;;;;4917520;28;20043;-77
2023/03/08 04:58:27;;;;;;;24.48;12.45;;;1.00;99.90;;;;;;4894055;28;20477;-78
2023/03/08 05:00:53;;;;;;;16.20;10.00;;;1.00;99.90;;;;;;4927268;28;20093;-78
2023/03/08 05:03:18;;;;;;;21.48;11.27;;;1.00;99.90;;;;;;4915546;28;20042;-79
2023/03/08 05:05:52;;;;;;;17.75;10.38;;;1.00;99.90;;;;;;4946682;28;20570;-79
2023/03/08 05:08:18;;;;;;;20.85;11.02;;;1.10;99.90;;;;;;4912296;28;20512;-80
2023/03/08 05:10:48;;;;;;;16.42;8.40;;;1.00;99.90;;;;;;4915363;28;20031;-80
2023/03/08 05:13:13;;;;;;;20.08;11.00;;;1.10;99.90;;;;;;4919438;28;20050;-78
2023/03/08 05:15:39;;;;;;;17.83;10.15;;;1.10;99.90;;;;;;4928276;28;20075;-79
2023/03/08 05:18:04;;;;;;;19.60;9.95;;;1.20;99.90;;;;;;4935719;28;20106;-79
2023/03/08 05:20:30;;;;;;;16.33;8.48;;;1.20;99.90;;;;;;4902115;28;20051;-79
2023/03/08 05:22:55;;;;;;;22.88;12.68;;;1.30;99.90;;;;;;4911120;28;20491;-78
2023/03/08 05:25:21;;;;;;;26.98;11.18;;;1.20;99.90;;;;;;4903022;28;20035;-78
2023/03/08 05:27:46;;;;;;;21.45;10.70;;;1.10;99.90;;;;;;4901552;28;20392;-78
2023/03/08 05:30:12;;;;;;;21.77;10.52;;;1.20;99.90;;;;;;4920420;29;20519;-79
2023/03/08 05:32:38;;;;;;;21.30;11.48;;;1.20;99.90;;;;;;4950357;28;20407;-78
2023/03/08 05:35:04;;;;;;;17.63;9.45;;;1.20;99.90;;;;;;4914474;28;20542;-80
2023/03/08 05:37:29;;;;;;;17.00;9.23;;;1.20;99.90;;;;;;4922951;28;20582;-79
2023/03/08 05:39:55;;;;;;;20.10;9.75;;;1.30;99.90;;;;;;4952243;28;20031;-79
2023/03/08 05:42:20;;;;;;;20.25;10.70;;;1.30;99.90;;;;;;4899993;28;20465;-77
2023/03/08 05:44:46;;;;;;;23.17;10.88;;;1.20;99.90;;;;;;4920178;28;20383;-79
2023/03/08 05:47:11;;;;;;;20.88;8.60;;;1.30;99.90;;;;;;4909026;28;20031;-78
2023/03/08 05:49:37;;;;;;;15.55;8.95;;;1.30;99.90;;;;;;4933586;28;20045;-79
2023/03/08 05:52:03;;;;;;;18.00;8.70;;;1.40;99.90;;;;;;4927084;28;20042;-78
2023/03/08 05:54:28;;;;;;;19.75;11.02;;;1.30;99.90;;;;;;4942464;28;20399;-78
2023/03/08 05:56:54;;;;;;;21.98;10.25;;;1.20;99.90;;;;;;4914749;28;20031;-77
2023/03/08 05:59:19;;;;;;;17.02;8.60;;;1.30;99.90;;;;;;4905879;28;20027;-77
2023/03/08 06:01:45;;;;;;;15.52;8.90;;;1.20;99.90;;;;;;4902042;28;20118;-78
2023/03/08 06:04:10;;;;;;;18.15;8.32;;;1.20;99.90;;;;;;4909958;28;20082;-78
2023/03/08 06:06:36;;;;;;;16.35;8.25;;;1.20;99.90;;;;;;4912882;28;20034;-78
2023/03/08 06:09:02;;;;;;;12.88;7.47;;;1.20;99.90;;;;;;4908395;28;20385;-77
2023/03/08 06:11:27;;;;;;;13.85;7.45;;;1.20;99.90;;;;;;4898321;28;20039;-78
2023/03/08 06:13:53;;;;;;;12.25;6.38;;;1.20;99.90;;;;;;4947415;28;20113;-77
2023/03/08 06:16:18;;;;;;;11.70;6.10;;;1.30;99.90;;;;;;4917992;28;20036;-77
2023/03/08 06:18:44;;;;;;;13.23;6.97;;;1.20;99.90;;;;;;4914690;28;20090;-77
2023/03/08 06:21:17;;;;;;;11.68;6.90;;;1.20;99.90;;;;;;4897385;28;20043;-78
2023/03/08 06:23:42;;;;;;;13.57;6.90;;;1.30;99.90;;;;;;4909764;28;20488;-78
2023/03/08 06:26:08;;;;;;;15.55;7.30;;;1.20;99.90;;;;;;4917971;28;20031;-78
2023/03/08 06:28:34;;;;;;;13.55;6.65;;;1.20;99.90;;;;;;4904832;28;20050;-78
2023/03/08 06:30:59;;;;;;;12.48;7.18;;;1.10;99.90;;;;;;4928599;28;20070;-77
2023/03/08 06:33:26;;;;;;;16.98;7.53;;;1.10;99.90;;;;;;4907070;28;20059;-78
2023/03/08 06:35:56;;;;;;;16.30;8.18;;;1.10;99.90;;;;;;4912456;28;20503;-78
2023/03/08 06:38:22;;;;;;;10.98;5.95;;;1.00;99.90;;;;;;4932208;28;20031;-77
2023/03/08 06:40:47;;;;;;;13.55;6.05;;;1.00;99.90;;;;;;4913943;28;20040;-79
2023/03/08 06:43:13;;;;;;;11.88;5.68;;;1.00;99.90;;;;;;4926465;28;20502;-78
2023/03/08 06:45:39;;;;;;;9.23;4.75;;;0.90;99.90;;;;;;4943600;28;20027;-77
2023/03/08 06:48:05;;;;;;;10.60;4.28;;;0.90;99.90;;;;;;4946758;28;20553;-78
2023/03/08 06:50:31;;;;;;;11.18;4.15;;;0.90;99.90;;;;;;4927411;28;20123;-77
2023/03/08 06:52:57;;;;;;;7.90;4.60;;;0.90;99.90;;;;;;4934565;28;20508;-77
2023/03/08 06:55:22;;;;;;;13.43;4.97;;;0.90;99.90;;;;;;4931943;28;20034;-79
2023/03/08 06:57:48;;;;;;;8.95;4.93;;;0.90;99.90;;;;;;4906170;29;20373;-79
2023/03/08 07:00:14;;;;;;;9.60;5.05;;;0.90;99.90;;;;;;4921899;29;20495;-79
2023/03/08 07:02:40;;;;;;;7.13;4.55;;;0.90;99.90;;;;;;4933812;28;20767;-78
2023/03/08 07:05:05;;;;;;;7.93;4.45;;;0.90;99.90;;;;;;4933826;28;20108;-78
2023/03/08 07:07:31;;;;;;;5.65;3.17;;;0.90;99.90;;;;;;4916993;28;20039;-79
2023/03/08 07:09:57;;;;;;;6.72;2.58;;;0.90;99.90;;;;;;4946370;28;20403;-77
2023/03/08 07:12:23;;;;;;;9.48;2.95;;;0.80;99.90;;;;;;4934951;28;20087;-78
2023/03/08 07:14:50;;;;;;;7.05;2.40;;;0.80;99.90;;;;;;4892971;29;20031;-77
2023/03/08 07:17:15;;;;;;;3.85;2.22;;;0.80;99.90;;;;;;4907055;28;20546;-78
2023/03/08 07:19:41;;;;;;;3.55;1.67;;;0.80;99.90;;;;;;4898741;28;20062;-78
2023/03/08 07:22:06;;;;;;;5.97;2.35;;;0.90;99.90;;;;;;4893520;28;20035;-78
2023/03/08 07:24:32;;;;;;;5.97;2.95;;;0.80;99.90;;;;;;4918356;28;20031;-79
2023/03/08 07:26:58;;;;;;;6.65;3.00;;;0.80;99.90;;;;;;4912582;28;20027;-78
2023/03/08 07:29:23;;;;;;;7.95;3.58;;;0.80;99.90;;;;;;4933200;28;20043;-78
2023/03/08 07:31:49;;;;;;;4.88;2.97;;;0.80;99.90;;;;;;4896931;28;20054;-78
2023/03/08 07:34:14;;;;;;;7.15;3.58;;;0.80;99.90;;;;;;4932876;28;20760;-78
2023/03/08 07:36:40;;;;;;;6.53;2.60;;;0.80;99.90;;;;;;4913617;28;20481;-77
2023/03/08 07:39:06;;;;;;;9.77;2.72;;;0.80;99.90;;;;;;4931792;28;20043;-78
2023/03/08 07:41:33;;;;;;;4.80;2.20;;;0.80;99.90;;;;;;4910233;28;20418;-79
2023/03/08 07:43:59;;;;;;;3.65;2.30;;;0.80;99.90;;;;;;4897398;28;20037;-77
2023/03/08 07:46:25;;;;;;;5.03;2.85;;;0.80;99.90;;;;;;4912384;28;20031;-78
2023/03/08 07:48:51;;;;;;;5.32;2.88;;;0.80;99.90;;;;;;4905140;29;20086;-78
2023/03/08 07:51:17;;;;;;;4.28;2.58;;;0.80;99.90;;;;;;4930878;28;20031;-78
2023/03/08 07:53:42;;;;;;;4.53;2.63;;;0.80;99.90;;;;;;4891034;29;20031;-78
2023/03/08 07:56:08;;;;;;;5.55;2.97;;;0.80;99.90;;;;;;4903265;28;20039;-78
2023/03/08 07:58:34;;;;;;;3.85;2.38;;;0.80;99.90;;;;;;4912175;28;20436;-78
2023/03/08 08:00:59;;;;;;;3.53;2.13;;;0.80;99.90;;;;;;4917933;28;20118;-78
2023/03/08 08:03:25;;;;;;;3.28;1.63;;;0.80;99.90;;;;;;4932575;28;20428;-79
2023/03/08 08:05:50;;;;;;;2.88;1.75;;;0.70;99.90;;;;;;4931739;28;20035;-78
2023/03/08 08:08:16;;;;;;;6.95;2.03;;;0.70;99.90;;;;;;4918295;28;20057;-78
2023/03/08 08:10:42;;;;;;;3.40;1.58;;;0.70;99.90;;;;;;4890327;28;20065;-78
2023/03/08 08:13:07;;;;;;;2.55;1.48;;;0.70;99.90;;;;;;4944929;28;20042;-78
2023/03/08 08:15:33;;;;;;;2.22;1.25;;;0.70;99.90;;;;;;4901815;28;20046;-78
2023/03/08 08:17:59;;;;;;;1.60;1.10;;;0.70;99.90;;;;;;4894119;28;20369;-78
2023/03/08 08:20:25;;;;;;;1.80;1.13;;;0.70;99.90;;;;;;4895898;28;20062;-78
2023/03/08 08:22:54;;;;;;;2.65;1.30;;;0.70;99.90;;;;;;4933476;28;20090;-78
2023/03/08 08:25:19;;;;;;;5.15;1.23;;;0.70;99.90;;;;;;4910195;28;20031;-78
2023/03/08 08:27:48;;;;;;;4.47;1.00;;;0.70;99.90;;;;;;4929321;28;20032;-78
2023/03/08 08:30:14;;;;;;;4.22;1.55;;;0.70;99.90;;;;;;4906416;28;20518;-77
2023/03/08 08:32:40;;;;;;;1.75;1.15;;;0.70;99.90;;;;;;4908357;28;20031;-79
2023/03/08 08:35:06;;;;;;;6.55;1.40;;;0.70;99.90;;;;;;4896488;28;20028;-78
2023/03/08 08:37:32;;;;;;;2.65;1.70;;;0.70;99.90;;;;;;4891916;28;20094;-77
2023/03/08 08:39:58;;;;;;;2.47;1.58;;;0.70;99.90;;;;;;4910161;29;20093;-78
2023/03/08 08:42:23;;;;;;;2.20;1.48;;;0.70;99.90;;;;;;4908771;28;20093;-78
2023/03/08 08:44:49;;;;;;;2.08;1.15;;;0.70;99.90;;;;;;4894723;29;20035;-77
2023/03/08 08:47:14;;;;;;;2.90;1.33;;;0.70;99.90;;;;;;4931259;28;20063;-77
2023/03/08 08:49:40;;;;;;;3.70;1.45;;;0.70;99.90;;;;;;4897458;28;20226;-78
2023/03/08 08:52:06;;;;;;;3.90;1.63;;;0.70;99.90;;;;;;4910236;28;20043;-78
2023/03/08 08:54:33;;;;;;;1.95;1.05;;;0.70;99.90;;;;;;4893658;28;20036;-78
2023/03/08 08:56:59;;;;;;;1.63;0.80;;;0.60;99.90;;;;;;4908161;29;20036;-78
2023/03/08 08:59:24;;;;;;;1.67;1.20;;;0.70;99.90;;;;;;4902274;28;20386;-78
2023/03/08 09:01:50;;;;;;;2.90;1.10;;;0.60;99.90;;;;;;4924506;28;20035;-78
2023/03/08 09:04:16;;;;;;;1.38;1.13;;;0.70;99.90;;;;;;4895465;28;20031;-79
2023/03/08 09:06:41;;;;;;;10.95;1.00;;;0.70;99.90;;;;;;4914270;28;20098;-79
2023/03/08 09:09:07;;;;;;;1.10;0.88;;;0.70;99.90;;;;;;4899494;28;20031;-79
2023/03/08 09:11:33;;;;;;;2.15;0.80;;;0.70;99.90;;;;;;4912772;28;20039;-78
2023/03/08 09:13:58;;;;;;;2.00;1.25;;;0.70;99.90;;;;;;4901631;29;20392;-78
2023/03/08 09:16:26;;;;;;;2.47;1.65;;;0.70;99.90;;;;;;4921682;29;20091;-78
2023/03/08 09:18:52;;;;;;;8.20;1.40;;;0.70;99.90;;;;;;4899908;28;20036;-78
2023/03/08 09:21:18;;;;;;;5.25;1.42;;;0.70;99.90;;;;;;4935067;28;20031;-78
2023/03/08 09:23:43;;;;;;;1.00;0.90;;;0.70;99.90;;;;;;4916097;28;20057;-78
2023/03/08 09:26:09;;;;;;;1.85;1.00;;;0.70;99.90;;;;;;4915064;28;20059;-79
2023/03/08 09:28:34;;;;;;;1.33;1.02;;;0.70;99.90;;;;;;4896311;28;20418;-79
2023/03/08 09:31:04;;;;;;;6.50;1.33;;;0.70;99.90;;;;;;4903581;29;20031;-79
2023/03/08 09:33:30;;;;;;;8.50;0.90;;;0.60;99.90;;;;;;4914322;28;20027;-78
2023/03/08 09:35:58;;;;;;;4.15;1.35;;;0.70;99.90;;;;;;4908500;28;20099;-79
2023/03/08 09:38:24;;;;;;;8.98;1.17;;;0.70;99.90;;;;;;4935438;28;20028;-79
2023/03/08 09:41:10;;;;;;;5.85;1.30;;;0.70;99.90;;;;;;4903369;29;20054;-79
2023/03/08 09:43:53;;;;;;;6.97;1.10;;;0.70;99.90;;;;;;4914165;28;20027;-78
2023/03/08 09:46:23;;;;;;;7.25;1.85;;;0.70;99.90;;;;;;4915830;28;20476;-78
2023/03/08 09:48:49;;;;;;;3.28;1.40;;;0.70;99.90;;;;;;4916358;28;20035;-78
2023/03/08 09:51:15;;;;;;;5.32;1.55;;;0.70;99.90;;;;;;4926209;28;20028;-78
2023/03/08 09:53:49;;;;;;;2.55;1.05;;;0.70;99.90;;;;;;4886004;29;20056;-79
2023/03/08 09:56:31;;;;;;;3.20;1.52;;;0.70;99.90;;;;;;4893985;28;20399;-78
2023/03/08 09:59:10;;;;;;;6.25;1.88;;;0.70;99.90;;;;;;4912759;28;20035;-78
2023/03/08 10:01:55;;;;;;;6.53;1.48;;;0.80;99.90;;;;;;4898371;28;20046;-79
2023/03/08 10:04:26;;;;;;;8.07;1.67;;;0.80;99.90;;;;;;4945567;28;20408;-78
2023/03/08 10:07:02;;;;;;;5.18;1.38;;;0.70;99.90;;;;;;4943038;28;20027;-79
2023/03/08 10:09:32;;;;;;;2.20;1.30;;;0.70;99.90;;;;;;4944653;28;20047;-79
2023/03/08 10:12:13;;;;;;;9.57;1.40;;;0.80;99.90;;;;;;4909313;28;20039;-78
2023/03/08 10:14:53;;;;;;;3.65;0.93;;;0.80;99.90;;;;;;4929899;28;20043;-78
2023/03/08 10:17:22;;;;;;;8.60;1.40;;;0.70;99.90;;;;;;4903469;28;20042;-79
2023/03/08 10:20:07;;;;;;;3.67;1.05;;;0.70;99.90;;;;;;4916744;28;20064;-79
2023/03/08 10:22:35;;;;;;;2.30;0.70;;;0.70;99.90;;;;;;4924108;28;20043;-78
2023/03/08 10:25:32;;;;;;;0.95;0.90;;;0.70;99.90;;;;;;4903317;28;20292;-79
2023/03/08 10:28:00;;;;;;;5.05;1.30;;;0.70;99.90;;;;;;4897646;28;20045;-79
2023/03/08 10:30:30;;;;;;;6.00;1.00;;;0.80;99.90;;;;;;4921366;28;20736;-78
2023/03/08 10:32:58;;;;;;;3.88;1.80;;;0.70;99.90;;;;;;4895553;28;20488;-78
2023/03/08 10:35:36;;;;;;;8.20;1.58;;;0.70;99.90;;;;;;4924633;28;20544;-79
2023/03/08 10:38:04;;;;;;;4.00;1.30;;;0.80;99.90;;;;;;4900733;28;20035;-79
2023/03/08 10:40:30;;;;;;;2.30;1.42;;;0.80;99.90;;;;;;4915254;28;20066;-80
2023/03/08 10:43:04;;;;;;;8.75;1.52;;;0.70;99.90;;;;;;4896852;29;20051;-79
2023/03/08 10:45:30;;;;;;;6.28;1.88;;;0.80;99.90;;;;;;4917590;28;20086;-79
2023/03/08 10:48:00;;;;;;;9.43;0.98;;;0.70;99.90;;;;;;4914180;28;20035;-80
2023/03/08 10:50:31;;;;;;;13.15;2.17;;;0.70;99.90;;;;;;4910803;28;20436;-79
2023/03/08 10:53:13;;;;;;;3.20;1.85;;;0.70;99.90;;;;;;4914357;28;20492;-79
2023/03/08 10:55:47;;;;;;;6.30;2.17;;;0.70;99.90;;;;;;4930184;28;20039;-79
2023/03/08 10:58:32;;;;;;;4.45;2.30;;;0.80;99.90;;;;;;4915468;28;20142;-79
2023/03/08 11:01:20;;;;;;;4.10;2.15;;;0.80;99.90;;;;;;4931106;28;20039;-78
2023/03/08 11:03:45;;;;;;;15.00;2.20;;;0.80;99.90;;;;;;4910292;28;20028;-78
2023/03/08 11:06:14;;;;;;;4.38;2.25;;;0.70;99.90;;;;;;4915672;28;20054;-78
2023/03/08 11:08:50;;;;;;;3.50;2.47;;;0.70;99.90;;;;;;4914609;28;20039;-79
2023/03/08 11:11:16;;;;;;;4.00;2.30;;;0.70;99.90;;;;;;4912610;28;20119;-80
2023/03/08 11:13:45;;;;;;;9.93;2.40;;;0.70;99.90;;;;;;4899917;28;20126;-80
2023/03/08 11:16:48;;;;;;;6.15;3.25;;;0.70;99.90;;;;;;4932381;28;20046;-79
2023/03/08 11:19:54;;;;;;;11.88;2.80;;;0.80;99.90;;;;;;4939941;28;20035;-80
2023/03/08 11:22:34;;;;;;;6.75;2.85;;;0.80;99.90;;;;;;4949012;28;20030;-79
2023/03/08 11:25:30;;;;;;;8.43;2.83;;;0.70;99.90;;;;;;4923616;28;20399;-81
2023/03/08 11:28:43;;;;;;;13.18;3.45;;;0.70;99.90;;;;;;4916793;28;20032;-81
2023/03/08 11:31:29;;;;;;;6.38;3.20;;;0.70;99.90;;;;;;4940788;28;20127;-80
2023/03/08 11:34:21;;;;;;;4.10;3.30;;;0.80;99.90;;;;;;4943385;28;20492;-80
2023/03/08 11:37:03;;;;;;;13.00;3.28;;;0.80;99.90;;;;;;4907425;28;20050;-80
2023/03/08 11:39:33;;;;;;;9.90;3.13;;;0.70;99.90;;;;;;4938235;28;20506;-80
2023/03/08 11:42:12;;;;;;;11.90;3.05;;;0.80;99.90;;;;;;4916292;28;20083;-79
2023/03/08 11:44:37;;;;;;;3.72;3.17;;;0.80;99.90;;;;;;4917811;28;20045;-80
2023/03/08 11:47:42;;;;;;;10.13;3.20;;;0.70;99.90;;;;;;4945552;28;20361;-79
2023/03/08 11:50:17;;;;;;;16.90;3.58;;;0.70;99.90;;;;;;4940917;28;20083;-79
2023/03/08 11:53:00;;;;;;;12.70;2.95;;;0.80;99.90;;;;;;4927878;28;20125;-79
2023/03/08 11:55:45;;;;;;;13.13;3.47;;;0.80;99.90;;;;;;4940796;28;20115;-79
2023/03/08 11:58:41;;;;;;;13.88;3.20;;;0.70;99.90;;;;;;4935167;28;20050;-80
2023/03/08 12:01:13;;;;;;;;;;;0.70;99.90;;;;;;4918013;28;20071;-79
2023/03/08 12:03:52;;;;;;;7.82;3.90;;;0.70;99.90;;;;;;4934122;28;19957;-80
2023/03/08 12:06:26;;;;;;;12.07;3.83;;;0.80;99.90;;;;;;4911146;28;20514;-80
2023/03/08 12:09:21;;;;;;;9.13;3.92;;;0.70;99.90;;;;;;4933802;28;20039;-79
2023/03/08 12:12:09;;;;;;;23.92;5.22;;;0.80;99.90;;;;;;4909736;28;20039;-80
2023/03/08 12:14:55;;;;;;;8.65;4.10;;;0.70;99.90;;;;;;4898383;28;20173;-79
2023/03/08 12:17:26;;;;;;;8.48;2.38;;;0.70;99.90;;;;;;4900351;28;20143;-81
2023/03/08 12:19:52;;;;;;;14.63;4.28;;;0.80;99.90;;;;;;4908621;28;20046;-80
2023/03/08 12:22:45;;;;;;;12.15;4.13;;;0.80;99.90;;;;;;4917313;28;20039;-80
2023/03/08 12:25:13;;;;;;;16.27;4.70;;;0.70;99.90;;;;;;4944945;28;20035;-81
2023/03/08 12:28:01;;;;;;;17.90;3.95;;;0.70;99.90;;;;;;4932166;28;20043;-80
2023/03/08 12:30:39;;;;;;;12.27;4.05;;;0.70;99.90;;;;;;4943390;28;20054;-80
2023/03/08 12:33:05;;;;;;;14.40;4.15;;;0.70;99.90;;;;;;4910663;28;20059;-80
2023/03/08 12:35:31;;;;;;;14.23;3.83;;;0.80;99.90;;;;;;4916107;28;20035;-80
2023/03/08 12:38:06;;;;;;;10.68;4.70;;;0.80;99.90;;;;;;4930351;28;20040;-81
2023/03/08 12:40:43;;;;;;;24.13;5.05;;;0.70;99.90;;;;;;4901076;28;20039;-80
2023/03/08 12:43:20;;;;;;;16.73;5.30;;;0.80;99.90;;;;;;4899354;28;20168;-80
2023/03/08 12:45:47;;;;;;;14.75;5.78;;;0.80;99.90;;;;;;4950515;28;20087;-81
2023/03/08 12:48:19;;;;;;;21.42;5.85;;;0.80;99.90;;;;;;4909571;28;20023;-80
2023/03/08 12:50:57;;;;;;;15.60;5.35;;;0.80;99.90;;;;;;4913007;29;20765;-81
2023/03/08 12:53:33;;;;;;;18.15;6.72;;;0.80;99.90;;;;;;4932475;28;20035;-79
2023/03/08 12:56:03;;;;;;;11.63;4.57;;;0.80;99.90;;;;;;4899287;28;20082;-79